Time;durP1;ratioP1;P1;durP2;ratioP2;P2;SDS_P1;SDS_P2;PMS_P1;PMS_P2;Temp;Humidity;BMP_temperature;BMP_pressure;BME280_temperature;BME280_humidity;BME280_pressure;Samples;Min_cycle;Max_cycle;Signal;HPM_P1;HPM_P2
2024/02/13 04:30:21;;;;;;;3.97;2.20;;;6.10;99.90;;;;;;4947719;28;20621;-86
2024/02/13 04:32:47;;;;;;;3.53;2.90;;;5.80;99.90;;;;;;4936337;29;20188;-86
2024/02/13 04:35:12;;;;;;;2.73;1.87;;;6.50;99.90;;;;;;4930211;29;20283;-86
2024/02/13 04:37:38;;;;;;;4.57;1.93;;;6.20;99.90;;;;;;4931575;29;20185;-86
2024/02/13 04:40:06;;;;;;;5.60;2.20;;;6.30;99.90;;;;;;4915528;29;20745;-87
2024/02/13 04:42:35;;;;;;;2.20;1.70;;;6.20;99.90;;;;;;4933371;29;20210;-86
2024/02/13 04:45:02;;;;;;;3.13;1.90;;;6.20;99.90;;;;;;4913730;29;20687;-86
2024/02/13 04:47:28;;;;;;;6.22;3.30;;;6.40;99.90;;;;;;4930276;29;20742;-86
2024/02/13 04:49:59;;;;;;;2.63;2.22;;;6.10;99.90;;;;;;4916785;29;20193;-87
2024/02/13 04:52:24;;;;;;;4.63;2.72;;;6.30;99.90;;;;;;4938182;28;20201;-86
2024/02/13 04:54:54;;;;;;;2.37;2.17;;;6.20;99.90;;;;;;4940388;28;20198;-86
2024/02/13 04:57:20;;;;;;;3.60;2.33;;;6.90;99.90;;;;;;4954285;28;20175;-86
2024/02/13 04:59:49;;;;;;;2.30;1.88;;;6.80;99.90;;;;;;4933844;28;20213;-86
2024/02/13 05:02:16;;;;;;;9.45;2.20;;;6.30;99.90;;;;;;4940647;28;20324;-86
2024/02/13 05:07:29;;;;;;;5.13;2.35;;;6.30;99.90;;;;;;4942644;28;20196;-86
2024/02/13 05:09:58;;;;;;;4.20;2.30;;;5.90;99.90;;;;;;4917483;29;20213;-86
2024/02/13 05:12:26;;;;;;;3.90;2.33;;;6.80;99.90;;;;;;4915323;29;20249;-86
2024/02/13 05:14:54;;;;;;;4.15;2.17;;;6.70;99.90;;;;;;4931380;29;20217;-87
2024/02/13 05:17:23;;;;;;;2.28;1.80;;;7.00;99.90;;;;;;4914782;29;20540;-86
2024/02/13 05:19:49;;;;;;;3.92;1.80;;;6.70;99.90;;;;;;4934275;29;20244;-86
2024/02/13 05:22:16;;;;;;;3.10;1.90;;;6.90;99.90;;;;;;4940584;28;20202;-86
2024/02/13 05:24:43;;;;;;;4.45;2.67;;;6.50;99.90;;;;;;4945240;28;20461;-87
2024/02/13 05:27:09;;;;;;;2.40;2.17;;;6.60;99.90;;;;;;4918586;29;20190;-88
2024/02/13 05:29:36;;;;;;;2.92;2.10;;;6.40;99.90;;;;;;4915829;29;20261;-88
2024/02/13 05:32:05;;;;;;;3.55;2.58;;;6.90;99.90;;;;;;4900014;29;20217;-88
2024/02/13 05:34:31;;;;;;;2.08;1.85;;;6.70;99.90;;;;;;4920128;29;20194;-88
2024/02/13 05:36:58;;;;;;;4.40;1.97;;;6.60;99.90;;;;;;4917140;29;20186;-87
2024/02/13 05:39:25;;;;;;;2.45;2.00;;;6.50;99.90;;;;;;4915603;29;20451;-88
2024/02/13 05:41:51;;;;;;;5.45;2.50;;;6.70;99.90;;;;;;4930105;29;20185;-88
2024/02/13 05:44:17;;;;;;;8.02;2.60;;;6.50;99.90;;;;;;4916155;29;20192;-88
2024/02/13 05:46:43;;;;;;;5.00;2.53;;;6.50;99.90;;;;;;4912809;29;20217;-88
2024/02/13 05:49:08;;;;;;;5.03;2.17;;;6.30;99.90;;;;;;4920875;29;20453;-88
2024/02/13 05:51:35;;;;;;;4.70;2.30;;;6.60;99.90;;;;;;4923914;29;20193;-88
2024/02/13 05:54:04;;;;;;;2.95;1.80;;;6.50;99.90;;;;;;4928124;29;20229;-88
2024/02/13 05:56:48;;;;;;;4.68;2.60;;;6.20;99.90;;;;;;4939962;28;20221;-92
2024/02/13 06:00:02;;;;;;;5.40;2.30;;;6.80;99.90;;;;;;4938412;29;20213;-93
2024/02/13 06:02:47;;;;;;;3.42;2.40;;;;;;;;;;4919928;29;20249;-91
2024/02/13 06:05:19;;;;;;;2.17;1.77;;;6.60;99.90;;;;;;4922418;29;20224;-92
2024/02/13 06:07:44;;;;;;;3.78;2.47;;;;;;;;;;4926224;29;20193;-92
2024/02/13 06:10:11;;;;;;;4.70;2.40;;;;;;;;;;4935343;29;20229;-91
2024/02/13 06:12:38;;;;;;;4.43;2.45;;;6.70;99.90;;;;;;5599897;23;20451;-91
2024/02/13 06:15:05;;;;;;;4.60;2.58;;;6.80;99.90;;;;;;5067690;23;20302;-90
2024/02/13 06:20:08;;;;;;;4.05;2.13;;;6.80;99.90;;;;;;5015694;23;20251;-86
2024/02/13 06:22:38;;;;;;;4.07;2.45;;;6.60;99.90;;;;;;4962312;28;20173;-92
2024/02/13 06:32:40;;;;;;;7.07;2.92;;;;;;;;;;5290428;23;20240;-90
2024/02/13 06:35:06;;;;;;;4.13;3.00;;;6.90;99.90;;;;;;4921554;29;20205;-91
2024/02/13 06:37:32;;;;;;;4.17;2.67;;;;;;;;;;4942363;29;21657;-89
2024/02/13 06:39:58;;;;;;;4.40;2.80;;;7.10;99.90;;;;;;4919039;29;20476;-88
2024/02/13 06:42:23;;;;;;;9.03;7.50;;;6.90;99.90;;;;;;4939860;29;20666;-87
2024/02/13 06:44:49;;;;;;;2.70;1.70;;;6.80;99.90;;;;;;4921759;29;20210;-87
2024/02/13 06:47:14;;;;;;;2.80;1.90;;;7.40;99.90;;;;;;4920510;29;20201;-87
2024/02/13 06:49:40;;;;;;;4.93;2.70;;;7.30;99.90;;;;;;4941167;29;20194;-87
2024/02/13 06:52:06;;;;;;;3.93;2.50;;;7.00;99.90;;;;;;4921156;29;20198;-88
2024/02/13 06:54:32;;;;;;;3.47;2.30;;;7.10;99.90;;;;;;4921960;29;20567;-88
2024/02/13 06:56:58;;;;;;;4.47;2.60;;;7.10;99.90;;;;;;4926248;29;20196;-88
2024/02/13 06:59:24;;;;;;;4.05;2.30;;;7.10;99.90;;;;;;4933512;28;20316;-88
2024/02/13 07:02:16;;;;;;;5.60;2.70;;;7.20;99.90;;;;;;4936358;29;20280;-87
2024/02/13 07:04:41;;;;;;;6.43;2.90;;;7.10;99.90;;;;;;4937898;29;20186;-88
2024/02/13 07:07:08;;;;;;;6.40;3.20;;;;;;;;;;4919717;29;20308;-87
2024/02/13 07:09:33;;;;;;;5.97;2.42;;;7.10;99.90;;;;;;4933450;29;20193;-78
2024/02/13 07:11:59;;;;;;;4.63;2.40;;;7.10;99.90;;;;;;4934369;29;20208;-79
2024/02/13 07:14:27;;;;;;;3.53;2.00;;;7.50;99.90;;;;;;4945851;28;20173;-91
2024/02/13 07:17:38;;;;;;;5.45;3.00;;;7.20;99.90;;;;;;4939342;29;20493;-92
2024/02/13 07:20:40;;;;;;;2.45;2.20;;;7.10;99.90;;;;;;4908190;29;20249;-89
2024/02/13 07:23:28;;;;;;;3.03;2.15;;;7.50;99.90;;;;;;4906039;29;20689;-90
2024/02/13 07:25:53;;;;;;;4.10;3.20;;;7.40;99.90;;;;;;4943755;28;20205;-89
2024/02/13 07:28:58;;;;;;;3.60;2.67;;;7.30;99.90;;;;;;4957707;28;20246;-87
2024/02/13 07:32:39;;;;;;;5.38;2.70;;;7.40;99.90;;;;;;4953173;28;20196;-87
2024/02/13 07:35:09;;;;;;;5.65;2.70;;;;;;;;;;5144583;23;20185;-90
2024/02/13 08:04:49;;;;;;;5.32;2.80;;;8.50;99.90;;;;;;5028758;23;20768;-85
2024/02/13 08:07:35;;;;;;;4.53;2.83;;;7.80;99.90;;;;;;4963509;28;20201;-89
2024/02/13 08:10:20;;;;;;;3.30;2.35;;;8.10;99.90;;;;;;4959093;29;20178;-89
2024/02/13 08:12:47;;;;;;;2.77;1.80;;;8.00;99.90;;;;;;4941008;29;20201;-89
2024/02/13 08:15:12;;;;;;;4.75;2.55;;;7.90;99.90;;;;;;4939405;29;20197;-89
2024/02/13 08:17:54;;;;;;;8.00;2.80;;;8.10;99.90;;;;;;4953784;29;20187;-88
2024/02/13 08:20:27;;;;;;;5.37;2.03;;;8.00;99.90;;;;;;4940845;29;20252;-90
2024/02/13 08:23:15;;;;;;;7.32;3.13;;;11.00;99.90;;;;;;4938399;29;20197;-89
2024/02/13 08:34:26;;;;;;;4.72;2.75;;;8.30;99.90;;;;;;4938681;29;20199;-89
2024/02/13 08:36:58;;;;;;;5.50;2.20;;;8.50;99.90;;;;;;4945861;29;20730;-89
2024/02/13 08:56:48;;;;;;;2.83;2.20;;;9.00;99.90;;;;;;6003536;23;21025;-88
2024/02/13 08:59:14;;;;;;;5.38;2.95;;;;;;;;;;4941139;29;20226;-89
2024/02/13 09:01:40;;;;;;;2.55;1.65;;;9.00;99.90;;;;;;4957528;29;20224;-89
2024/02/13 09:04:06;;;;;;;9.90;2.00;;;9.10;99.90;;;;;;4939598;29;20191;-87
2024/02/13 09:06:58;;;;;;;6.03;1.73;;;9.30;99.90;;;;;;4923236;29;20208;-88
2024/02/13 09:09:42;;;;;;;1.73;1.30;;;9.40;99.90;;;;;;4954289;29;20194;-88
2024/02/13 09:12:11;;;;;;;4.63;1.20;;;10.90;99.90;;;;;;4953098;29;20555;-89
2024/02/13 09:14:37;;;;;;;1.98;1.75;;;12.40;98.60;;;;;;4935199;28;20173;-90
2024/02/13 09:17:02;;;;;;;1.33;1.23;;;13.30;94.80;;;;;;4940624;28;20192;-89
2024/02/13 09:19:29;;;;;;;3.90;1.67;;;15.20;93.40;;;;;;4933723;29;20232;-90
2024/02/13 09:21:56;;;;;;;2.78;1.52;;;16.90;92.30;;;;;;4922201;29;20189;-89
2024/02/13 09:24:23;;;;;;;5.20;1.60;;;15.30;91.30;;;;;;4921569;29;20189;-89
2024/02/13 09:26:51;;;;;;;6.20;3.60;;;14.00;91.00;;;;;;4916618;29;20197;-87
2024/02/13 09:29:17;;;;;;;5.95;1.73;;;13.70;92.20;;;;;;4920066;29;20189;-89
2024/02/13 09:31:43;;;;;;;2.97;1.35;;;13.70;92.60;;;;;;4918724;29;20193;-89
2024/02/13 09:34:08;;;;;;;5.77;5.20;;;14.70;91.90;;;;;;4934181;29;20197;-89
2024/02/13 09:36:37;;;;;;;4.90;2.80;;;16.30;90.40;;;;;;4928038;29;20274;-91
2024/02/13 10:04:56;;;;;;;2.42;1.60;;;16.30;82.00;;;;;;5778509;23;20220;-91
2024/02/13 10:07:22;;;;;;;3.00;1.50;;;17.10;83.20;;;;;;4925240;29;20189;-92
2024/02/13 10:09:49;;;;;;;3.15;1.85;;;16.40;81.90;;;;;;4922744;29;20274;-91
2024/02/13 10:12:15;;;;;;;3.65;1.90;;;17.60;80.00;;;;;;4932848;29;20185;-89
2024/02/13 10:14:40;;;;;;;1.98;1.60;;;17.20;75.90;;;;;;4926183;29;20189;-90
2024/02/13 10:17:11;;;;;;;3.63;2.10;;;17.10;76.50;;;;;;4931058;29;20260;-91
2024/02/13 10:19:41;;;;;;;2.83;1.52;;;17.30;76.50;;;;;;4930155;29;20213;-90
2024/02/13 10:22:10;;;;;;;3.22;1.70;;;17.30;77.90;;;;;;4927576;29;20188;-89
2024/02/13 10:24:36;;;;;;;3.80;1.80;;;17.30;76.80;;;;;;4924645;28;20178;-89
2024/02/13 10:27:03;;;;;;;2.80;1.40;;;16.80;76.80;;;;;;4927375;29;20189;-89
2024/02/13 10:29:44;;;;;;;3.40;2.03;;;16.70;77.40;;;;;;4940146;29;20193;-89
2024/02/13 10:32:09;;;;;;;1.70;1.38;;;16.70;76.50;;;;;;4927918;29;20194;-90
2024/02/13 10:34:36;;;;;;;3.73;1.70;;;16.40;77.20;;;;;;4922129;29;20187;-89
2024/02/13 10:37:11;;;;;;;4.78;2.03;;;16.30;77.50;;;;;;4937984;29;20253;-90
2024/02/13 10:39:40;;;;;;;3.40;1.70;;;16.20;78.20;;;;;;4934408;29;20593;-89
2024/02/13 10:42:10;;;;;;;1.48;1.27;;;15.90;77.70;;;;;;4926497;29;20257;-89
2024/02/13 10:44:43;;;;;;;4.35;1.75;;;15.40;78.70;;;;;;4924764;28;20212;-89
2024/02/13 10:47:14;;;;;;;3.58;1.60;;;14.90;79.10;;;;;;4927169;29;20186;-89
2024/02/13 10:50:33;;;;;;;2.10;1.30;;;14.70;80.60;;;;;;4926708;29;20195;-90
2024/02/13 10:53:00;;;;;;;5.85;2.15;;;14.30;80.90;;;;;;4937094;29;20201;-87
2024/02/13 10:55:26;;;;;;;2.28;1.30;;;13.60;82.60;;;;;;4926041;29;20210;-88
2024/02/13 10:57:52;;;;;;;3.10;1.95;;;13.50;84.10;;;;;;4921812;29;20194;-89
2024/02/13 11:00:21;;;;;;;4.03;1.57;;;13.30;83.80;;;;;;4925586;29;20224;-90
2024/02/13 11:02:48;;;;;;;1.30;1.20;;;13.10;83.80;;;;;;4920682;29;20445;-90
2024/02/13 11:05:15;;;;;;;2.63;1.52;;;13.20;84.30;;;;;;4924932;29;20220;-89
2024/02/13 11:07:41;;;;;;;6.65;1.95;;;13.60;85.00;;;;;;4926485;29;20218;-93
2024/02/13 11:10:08;;;;;;;1.47;1.20;;;14.20;85.80;;;;;;4948666;29;20197;-93
2024/02/13 11:12:38;;;;;;;3.70;1.45;;;13.60;81.90;;;;;;4940313;29;20453;-93
2024/02/13 11:15:16;;;;;;;2.40;1.15;;;14.30;82.50;;;;;;4923783;28;20237;-92
2024/02/13 11:17:57;;;;;;;2.47;1.67;;;13.70;81.70;;;;;;4929131;29;20333;-88
2024/02/13 11:20:27;;;;;;;2.60;1.30;;;15.30;83.60;;;;;;4928845;29;20264;-90
2024/02/13 11:23:01;;;;;;;1.30;1.20;;;14.70;81.90;;;;;;4948937;29;20225;-90
2024/02/13 11:25:28;;;;;;;2.35;1.95;;;13.10;82.10;;;;;;4928926;29;20233;-90
2024/02/13 11:28:06;;;;;;;2.67;1.70;;;13.40;81.90;;;;;;4934301;29;20820;-91
2024/02/13 11:30:33;;;;;;;2.72;1.20;;;13.50;80.60;;;;;;4926332;29;20181;-90
2024/02/13 11:33:01;;;;;;;3.28;1.70;;;13.30;80.50;;;;;;4942049;29;20451;-88
2024/02/13 11:35:29;;;;;;;3.15;1.10;;;13.60;82.30;;;;;;4938483;29;20194;-91
2024/02/13 11:37:57;;;;;;;3.47;1.35;;;13.40;83.40;;;;;;4936347;29;20193;-92
2024/02/13 11:40:23;;;;;;;1.25;1.10;;;13.30;82.90;;;;;;4945967;28;20225;-91
2024/02/13 11:42:48;;;;;;;2.47;1.37;;;13.00;84.30;;;;;;4943772;28;20181;-92
2024/02/13 11:45:22;;;;;;;2.10;1.50;;;13.20;84.40;;;;;;4946699;28;20291;-92
2024/02/13 11:47:49;;;;;;;2.55;1.10;;;13.20;85.40;;;;;;4942182;28;20217;-92
2024/02/13 11:50:17;;;;;;;1.13;0.82;;;13.20;84.00;;;;;;4940486;29;20204;-92
2024/02/13 11:52:43;;;;;;;1.45;1.23;;;12.30;82.40;;;;;;4943027;29;20274;-93
2024/02/13 11:55:10;;;;;;;2.55;1.00;;;12.10;82.90;;;;;;4965328;28;20208;-92
2024/02/13 11:57:37;;;;;;;2.40;1.27;;;13.60;85.10;;;;;;4943975;28;20186;-91
2024/02/13 12:00:12;;;;;;;1.88;1.13;;;13.20;84.50;;;;;;4931691;29;20209;-92
2024/02/13 12:02:38;;;;;;;1.48;0.95;;;12.20;83.10;;;;;;4911447;29;20284;-89
2024/02/13 12:05:10;;;;;;;1.80;1.17;;;12.00;82.50;;;;;;4927065;29;20297;-89
2024/02/13 12:07:41;;;;;;;1.95;1.85;;;11.80;82.00;;;;;;4949042;29;20211;-90
2024/02/13 12:10:10;;;;;;;3.13;1.27;;;14.20;85.60;;;;;;4925393;29;20189;-91
2024/02/13 12:12:36;;;;;;;1.27;0.98;;;11.90;82.60;;;;;;4925589;29;20224;-90
2024/02/13 12:15:10;;;;;;;1.13;1.00;;;11.60;82.30;;;;;;4927979;29;20217;-89
2024/02/13 12:17:40;;;;;;;1.77;0.90;;;11.60;84.10;;;;;;4947410;28;20449;-88
2024/02/13 12:20:18;;;;;;;1.77;0.90;;;12.40;84.90;;;;;;4930106;29;20221;-90
2024/02/13 12:22:45;;;;;;;1.10;0.90;;;11.60;83.30;;;;;;4942996;29;20453;-88
2024/02/13 12:25:18;;;;;;;1.45;1.10;;;12.90;84.50;;;;;;4945983;28;20284;-90
2024/02/13 12:28:12;;;;;;;1.20;1.00;;;11.40;82.50;;;;;;4959087;29;20224;-92
2024/02/13 12:30:44;;;;;;;4.72;3.53;;;11.60;82.00;;;;;;4937489;29;20194;-91
2024/02/13 12:33:20;;;;;;;1.85;1.00;;;11.50;81.70;;;;;;4985626;23;20264;-92
2024/02/13 12:35:46;;;;;;;1.65;1.00;;;;;;;;;;4936673;28;20214;-92
2024/02/13 12:38:14;;;;;;;1.60;1.00;;;11.50;81.70;;;;;;4933251;29;20260;-93
2024/02/13 12:40:44;;;;;;;2.88;1.00;;;11.30;83.60;;;;;;4921148;29;20198;-93
2024/02/13 12:43:15;;;;;;;3.22;1.80;;;13.60;84.80;;;;;;4923038;29;20178;-91
2024/02/13 12:45:41;;;;;;;3.15;2.17;;;13.30;85.70;;;;;;4934749;29;20342;-91
2024/02/13 12:48:10;;;;;;;1.40;1.00;;;;;;;;;;4929819;29;20241;-91
2024/02/13 12:50:37;;;;;;;2.63;1.10;;;12.50;80.10;;;;;;4923154;29;20584;-91
2024/02/13 12:53:07;;;;;;;1.00;0.77;;;13.90;81.90;;;;;;4908343;29;20195;-91
2024/02/13 12:55:33;;;;;;;1.60;1.15;;;12.40;79.40;;;;;;4921556;29;20667;-90
2024/02/13 12:58:01;;;;;;;3.17;2.27;;;12.90;80.30;;;;;;4911583;29;20226;-90
2024/02/13 13:00:28;;;;;;;1.85;1.00;;;12.80;78.00;;;;;;4907524;29;20314;-90
2024/02/13 13:02:55;;;;;;;1.10;0.90;;;13.00;79.30;;;;;;4921877;29;20200;-91
2024/02/13 13:05:20;;;;;;;1.58;1.20;;;12.20;77.70;;;;;;4930384;29;20218;-84
2024/02/13 13:07:48;;;;;;;1.80;1.37;;;14.80;79.30;;;;;;4915928;29;20178;-84
2024/02/13 13:10:14;;;;;;;2.85;2.05;;;13.10;78.20;;;;;;4901791;29;20237;-87
2024/02/13 13:12:45;;;;;;;3.08;2.58;;;13.90;79.30;;;;;;4918231;29;20253;-85
2024/02/13 13:15:12;;;;;;;4.50;1.42;;;12.80;78.90;;;;;;4919851;29;20265;-85
2024/02/13 13:17:39;;;;;;;1.88;0.88;;;12.90;78.50;;;;;;4919340;29;20182;-85
2024/02/13 13:20:06;;;;;;;2.35;1.10;;;13.10;78.80;;;;;;4913485;29;20218;-84
2024/02/13 13:22:34;;;;;;;1.20;0.85;;;13.40;78.60;;;;;;4917589;29;20285;-85
2024/02/13 13:25:09;;;;;;;1.70;1.00;;;13.40;77.70;;;;;;4917209;29;20221;-85
2024/02/13 13:27:38;;;;;;;3.28;1.42;;;13.30;77.50;;;;;;4918887;29;20229;-84
2024/02/13 13:30:07;;;;;;;1.45;0.90;;;13.70;78.10;;;;;;4920737;29;20241;-85
2024/02/13 13:32:33;;;;;;;2.47;1.95;;;13.20;74.40;;;;;;4920752;29;20270;-83
2024/02/13 13:35:00;;;;;;;1.30;1.08;;;13.30;74.60;;;;;;4915309;29;20216;-86
2024/02/13 13:37:28;;;;;;;2.65;1.10;;;13.70;74.50;;;;;;4913580;29;20719;-84
2024/02/13 13:39:57;;;;;;;1.48;0.85;;;13.90;73.70;;;;;;4911784;29;20317;-85
2024/02/13 13:42:23;;;;;;;1.10;0.80;;;13.50;71.70;;;;;;4896522;29;20277;-85
2024/02/13 13:44:48;;;;;;;3.07;0.90;;;13.50;71.20;;;;;;4914221;29;20234;-85
2024/02/13 13:47:47;;;;;;;0.90;0.70;;;13.80;72.10;;;;;;4927901;29;20197;-84
2024/02/13 13:50:17;;;;;;;1.00;0.90;;;13.50;72.80;;;;;;4922253;29;20474;-85
2024/02/13 13:52:44;;;;;;;0.80;0.63;;;13.90;72.60;;;;;;4899199;29;20210;-84
2024/02/13 13:55:09;;;;;;;1.20;1.10;;;13.70;71.80;;;;;;4922953;29;20310;-84
2024/02/13 13:57:36;;;;;;;1.60;0.80;;;13.70;73.10;;;;;;4905376;29;20218;-84
2024/02/13 14:00:09;;;;;;;3.08;1.20;;;13.50;73.00;;;;;;4919257;29;20218;-84
2024/02/13 14:02:55;;;;;;;1.20;1.05;;;13.80;72.90;;;;;;4901717;29;20393;-87
2024/02/13 14:05:23;;;;;;;0.80;0.77;;;13.60;71.80;;;;;;4916148;29;20206;-85
2024/02/13 14:07:49;;;;;;;1.88;1.27;;;13.80;71.50;;;;;;4907739;29;20233;-86
2024/02/13 14:10:20;;;;;;;1.20;0.90;;;13.90;68.60;;;;;;4905537;29;20194;-87
2024/02/13 14:12:47;;;;;;;1.23;0.75;;;13.50;69.20;;;;;;4921852;29;20450;-86
2024/02/13 14:15:13;;;;;;;1.30;0.75;;;13.10;69.20;;;;;;4933119;29;20289;-85
2024/02/13 14:17:42;;;;;;;1.00;0.80;;;13.20;70.40;;;;;;4928168;29;20226;-86
2024/02/13 14:20:09;;;;;;;1.00;0.85;;;13.70;70.90;;;;;;4913181;29;20495;-85
2024/02/13 14:22:37;;;;;;;2.08;1.40;;;13.20;72.10;;;;;;4927115;29;20193;-85
2024/02/13 14:25:07;;;;;;;1.67;0.93;;;13.60;72.70;;;;;;4935952;29;20354;-85
2024/02/13 14:27:33;;;;;;;0.80;0.70;;;13.20;71.80;;;;;;4915906;29;20179;-84
2024/02/13 14:29:59;;;;;;;1.20;1.10;;;13.40;72.90;;;;;;4929826;29;20211;-83
2024/02/13 14:32:25;;;;;;;1.77;1.00;;;13.70;72.50;;;;;;4937505;28;20448;-87
2024/02/13 14:34:51;;;;;;;1.83;1.02;;;13.60;72.50;;;;;;4933659;29;20229;-83
2024/02/13 14:37:18;;;;;;;2.10;1.30;;;13.40;72.70;;;;;;4931788;29;20376;-83
2024/02/13 14:39:44;;;;;;;0.80;0.68;;;13.10;71.70;;;;;;4933158;29;20757;-84
2024/02/13 14:42:09;;;;;;;1.13;1.00;;;13.10;72.90;;;;;;4925156;29;20232;-83
2024/02/13 14:44:35;;;;;;;1.20;0.80;;;13.30;73.40;;;;;;4930969;29;20194;-83
2024/02/13 14:47:04;;;;;;;0.80;0.60;;;13.50;74.30;;;;;;4928060;29;20217;-84
2024/02/13 14:49:34;;;;;;;1.60;0.75;;;14.00;74.00;;;;;;4935511;29;20333;-81
2024/02/13 14:52:04;;;;;;;2.17;1.30;;;13.80;74.10;;;;;;4932972;29;20206;-82
2024/02/13 14:54:31;;;;;;;2.25;1.40;;;13.30;77.30;;;;;;4929573;29;20258;-82
2024/02/13 14:56:59;;;;;;;1.55;1.23;;;13.50;79.50;;;;;;4927617;29;20198;-84
2024/02/13 14:59:25;;;;;;;1.45;1.23;;;13.30;81.20;;;;;;4921578;29;20217;-85
2024/02/13 15:01:54;;;;;;;2.40;1.57;;;12.70;81.70;;;;;;4925095;29;20194;-85
2024/02/13 15:04:20;;;;;;;2.35;2.13;;;13.00;81.70;;;;;;4920490;29;20450;-84
2024/02/13 15:06:49;;;;;;;1.23;1.13;;;13.30;82.20;;;;;;4922091;29;20220;-85
2024/02/13 15:09:16;;;;;;;2.08;1.40;;;13.00;81.60;;;;;;4919578;29;20190;-86
2024/02/13 15:11:42;;;;;;;3.67;1.20;;;12.90;81.80;;;;;;4924702;29;20198;-84
2024/02/13 15:14:08;;;;;;;1.20;1.08;;;12.70;81.10;;;;;;4924754;29;20198;-85
2024/02/13 15:16:34;;;;;;;3.00;1.23;;;12.80;82.00;;;;;;4933242;29;20228;-84
2024/02/13 15:19:01;;;;;;;1.40;1.30;;;12.70;81.50;;;;;;4931600;29;20268;-83
2024/02/13 15:21:26;;;;;;;2.70;1.88;;;12.40;82.00;;;;;;4921153;29;20189;-82
2024/02/13 15:23:52;;;;;;;1.70;1.23;;;12.70;82.90;;;;;;4926181;29;20182;-83
2024/02/13 15:26:18;;;;;;;1.53;0.90;;;12.10;82.00;;;;;;4915621;29;20226;-84
2024/02/13 15:28:44;;;;;;;1.50;0.75;;;12.50;81.90;;;;;;4928925;29;20202;-84
2024/02/13 15:31:11;;;;;;;1.83;1.20;;;12.00;81.40;;;;;;4929595;29;20221;-83
2024/02/13 15:33:38;;;;;;;1.33;1.20;;;12.00;82.10;;;;;;4926661;28;20207;-82
2024/02/13 15:36:08;;;;;;;2.25;1.35;;;12.20;82.90;;;;;;4927086;29;20280;-82
2024/02/13 15:47:04;;;;;;;1.77;1.20;;;11.60;84.10;;;;;;4924784;29;20262;-83
2024/02/13 15:49:32;;;;;;;1.98;0.82;;;11.70;84.00;;;;;;4918125;29;20186;-84
2024/02/13 15:51:58;;;;;;;2.90;1.63;;;11.50;83.40;;;;;;4921139;29;20197;-83
2024/02/13 15:54:25;;;;;;;2.28;1.50;;;11.60;83.50;;;;;;4932796;29;20192;-83
2024/02/13 15:56:57;;;;;;;3.00;1.20;;;11.40;83.90;;;;;;4932738;29;20212;-83
2024/02/13 15:59:24;;;;;;;1.20;1.10;;;11.60;83.80;;;;;;4927675;29;20212;-83
2024/02/13 16:01:50;;;;;;;1.60;1.02;;;;;;;;;;4928376;29;20256;-83
2024/02/13 16:04:18;;;;;;;1.80;1.40;;;11.10;82.90;;;;;;4925513;29;20220;-84
2024/02/13 16:06:46;;;;;;;1.25;1.00;;;11.20;84.40;;;;;;4920271;29;20693;-83
2024/02/13 16:09:15;;;;;;;6.35;1.90;;;11.60;84.70;;;;;;4905583;29;20292;-86
2024/02/13 16:11:42;;;;;;;1.42;0.95;;;11.40;85.50;;;;;;4914992;29;20278;-86
2024/02/13 16:14:08;;;;;;;1.90;1.30;;;11.10;85.00;;;;;;4908659;29;20205;-86
2024/02/13 16:16:35;;;;;;;1.13;1.02;;;12.70;87.20;;;;;;4913335;29;20732;-86
2024/02/13 16:19:03;;;;;;;2.25;1.30;;;11.10;84.60;;;;;;4912458;29;20257;-86
2024/02/13 16:21:29;;;;;;;2.58;1.60;;;11.10;85.00;;;;;;4895806;29;20204;-85
2024/02/13 16:23:55;;;;;;;4.15;1.15;;;11.60;86.30;;;;;;4896265;29;20198;-84
2024/02/13 16:26:21;;;;;;;2.43;1.07;;;11.50;85.20;;;;;;4912981;29;20213;-85
2024/02/13 16:28:47;;;;;;;2.70;1.20;;;11.10;85.40;;;;;;4934182;23;20513;-91
2024/02/13 16:31:12;;;;;;;2.57;1.33;;;11.10;85.70;;;;;;4954540;29;20547;-91
2024/02/13 16:33:38;;;;;;;3.10;1.80;;;11.00;85.60;;;;;;4949108;29;20651;-91
2024/02/13 16:36:05;;;;;;;1.87;1.00;;;11.10;86.80;;;;;;4929206;29;20680;-91
2024/02/13 16:38:30;;;;;;;2.03;0.90;;;10.60;86.10;;;;;;4914310;29;20314;-91
2024/02/13 16:40:56;;;;;;;1.50;1.27;;;10.60;86.40;;;;;;4905880;29;20213;-91
2024/02/13 16:43:21;;;;;;;2.47;1.83;;;10.90;87.10;;;;;;4913306;29;20274;-91
2024/02/13 16:45:48;;;;;;;2.35;1.30;;;10.60;87.00;;;;;;4932783;29;20274;-91
2024/02/13 16:48:16;;;;;;;1.15;0.95;;;10.70;87.30;;;;;;4905133;29;20248;-91
2024/02/13 16:50:42;;;;;;;2.90;1.20;;;10.90;87.50;;;;;;4911118;29;20870;-91
2024/02/13 16:53:07;;;;;;;2.10;1.70;;;10.20;88.40;;;;;;4910654;29;20201;-91
2024/02/13 16:55:33;;;;;;;3.00;1.40;;;11.60;89.50;;;;;;4906551;29;20248;-91
2024/02/13 16:58:00;;;;;;;4.60;1.43;;;10.30;88.80;;;;;;4910629;29;20570;-91
2024/02/13 17:00:26;;;;;;;1.85;1.20;;;10.10;88.30;;;;;;4900079;29;20231;-91
2024/02/13 17:02:52;;;;;;;4.20;1.33;;;10.20;88.00;;;;;;4905814;29;20645;-91
2024/02/13 17:05:18;;;;;;;1.40;1.30;;;10.80;90.00;;;;;;4915791;29;20207;-92
2024/02/13 17:07:44;;;;;;;3.63;1.63;;;10.30;90.30;;;;;;4917926;29;20274;-89
2024/02/13 17:10:16;;;;;;;3.00;1.90;;;10.30;90.20;;;;;;4908486;29;20236;-89
2024/02/13 17:12:43;;;;;;;2.38;2.15;;;10.20;90.10;;;;;;4919555;29;20227;-92
2024/02/13 17:15:48;;;;;;;2.77;1.90;;;9.80;91.00;;;;;;4912648;29;20215;-86
2024/02/13 17:18:13;;;;;;;3.90;2.00;;;10.10;91.30;;;;;;4910430;29;20203;-86
2024/02/13 17:20:39;;;;;;;4.70;2.90;;;10.40;91.10;;;;;;4905082;29;20219;-86
2024/02/13 17:23:08;;;;;;;4.97;2.17;;;9.70;92.10;;;;;;4904582;29;20186;-86
2024/02/13 17:25:35;;;;;;;3.00;2.00;;;9.90;93.10;;;;;;4901984;29;20235;-86
2024/02/13 17:28:01;;;;;;;1.80;1.70;;;10.30;92.50;;;;;;4913705;29;20211;-87
2024/02/13 17:30:26;;;;;;;3.53;1.80;;;10.30;92.20;;;;;;4903783;29;20221;-86
2024/02/13 17:32:53;;;;;;;2.20;1.50;;;9.90;93.20;;;;;;4903528;29;20442;-86
2024/02/13 17:35:19;;;;;;;2.40;1.60;;;9.00;93.80;;;;;;4908178;29;20207;-86
2024/02/13 17:37:46;;;;;;;9.73;2.20;;;9.90;94.70;;;;;;4906965;29;20275;-86
2024/02/13 17:40:12;;;;;;;3.03;1.80;;;9.90;94.30;;;;;;4904157;29;20234;-86
2024/02/13 17:42:38;;;;;;;5.55;2.95;;;9.50;93.90;;;;;;4906377;29;20192;-86
2024/02/13 17:45:04;;;;;;;2.70;2.20;;;9.50;95.10;;;;;;4908242;29;20218;-86
2024/02/13 17:47:30;;;;;;;3.63;2.30;;;9.20;95.60;;;;;;4910643;29;20425;-86
2024/02/13 17:49:56;;;;;;;2.43;2.23;;;9.20;96.20;;;;;;4907948;29;20518;-86
2024/02/13 17:52:21;;;;;;;3.90;2.93;;;9.00;96.20;;;;;;4904460;29;20447;-86
2024/02/13 17:54:47;;;;;;;5.43;2.30;;;8.90;96.40;;;;;;4902674;29;20495;-86
2024/02/13 17:57:12;;;;;;;3.03;2.33;;;9.30;97.30;;;;;;4907168;29;20223;-86
2024/02/13 17:59:38;;;;;;;5.03;4.00;;;9.30;97.20;;;;;;4903221;29;20202;-86
2024/02/13 18:02:04;;;;;;;5.43;3.00;;;8.60;97.60;;;;;;4907527;29;20374;-86
2024/02/13 18:04:29;;;;;;;7.73;5.47;;;8.40;98.50;;;;;;4906584;29;20194;-87
2024/02/13 18:06:55;;;;;;;4.30;3.33;;;8.60;98.90;;;;;;4909619;29;20236;-86
2024/02/13 18:09:21;;;;;;;6.57;2.80;;;8.50;99.30;;;;;;4908208;29;20244;-87
2024/02/13 18:11:47;;;;;;;3.93;3.13;;;8.60;98.90;;;;;;4906579;29;20635;-86
2024/02/13 18:14:12;;;;;;;6.37;2.60;;;8.70;99.20;;;;;;4902815;29;20508;-86
2024/02/13 18:16:39;;;;;;;6.90;3.57;;;8.70;99.50;;;;;;4907101;29;20205;-86
2024/02/13 18:19:05;;;;;;;4.38;2.70;;;8.70;99.80;;;;;;4926375;29;20243;-87
2024/02/13 18:21:37;;;;;;;3.25;2.10;;;8.30;99.90;;;;;;4931298;29;20193;-87
2024/02/13 18:24:02;;;;;;;7.53;3.28;;;8.20;99.90;;;;;;4924456;29;20643;-86
2024/02/13 18:26:28;;;;;;;5.90;3.70;;;8.30;99.90;;;;;;4907104;29;20210;-86
2024/02/13 18:28:55;;;;;;;4.45;2.85;;;8.10;99.90;;;;;;4906889;29;20651;-86
2024/02/13 18:31:21;;;;;;;4.07;2.47;;;8.50;99.90;;;;;;4904756;29;20261;-87
2024/02/13 18:33:47;;;;;;;2.88;2.55;;;8.00;99.90;;;;;;4907677;29;20702;-87
2024/02/13 18:36:13;;;;;;;6.53;5.50;;;8.50;99.90;;;;;;4912201;29;20214;-87
2024/02/13 18:38:38;;;;;;;7.97;3.90;;;8.20;99.90;;;;;;4908229;29;20711;-87
2024/02/13 18:41:05;;;;;;;4.47;3.30;;;8.10;99.90;;;;;;4922985;29;20194;-87
2024/02/13 18:43:31;;;;;;;2.92;2.63;;;8.30;99.90;;;;;;4903703;29;20183;-87
2024/02/13 18:45:56;;;;;;;2.58;2.38;;;8.20;99.90;;;;;;4920208;29;20232;-86
2024/02/13 18:48:25;;;;;;;9.23;3.57;;;7.40;99.90;;;;;;4913170;29;20190;-87
2024/02/13 18:50:51;;;;;;;4.05;3.10;;;7.90;99.90;;;;;;4909252;29;20277;-86
2024/02/13 18:53:20;;;;;;;8.38;3.72;;;7.90;99.90;;;;;;4925825;28;20190;-86
2024/02/13 18:55:46;;;;;;;8.52;3.20;;;7.90;99.90;;;;;;4929489;29;20212;-85
2024/02/13 18:58:12;;;;;;;4.90;3.60;;;8.20;99.90;;;;;;4927617;29;20183;-87
2024/02/13 19:00:38;;;;;;;6.73;2.63;;;8.10;99.90;;;;;;4914410;29;20228;-87
2024/02/13 19:03:06;;;;;;;4.53;3.57;;;7.60;99.90;;;;;;4899010;29;20187;-87
2024/02/13 19:05:32;;;;;;;5.28;3.22;;;7.40;99.90;;;;;;4900374;29;20723;-87
2024/02/13 19:07:59;;;;;;;4.43;3.90;;;7.80;99.90;;;;;;4912842;29;20213;-87
2024/02/13 19:10:25;;;;;;;6.03;4.35;;;7.10;99.90;;;;;;4919947;29;20201;-87
2024/02/13 19:12:54;;;;;;;4.37;3.77;;;;;;;;;;4923918;29;20202;-87
2024/02/13 19:15:20;;;;;;;5.25;2.97;;;7.40;99.90;;;;;;4915478;29;20198;-87